Time;durP1;ratioP1;P1;durP2;ratioP2;P2;SDS_P1;SDS_P2;PMS_P1;PMS_P2;Temp;Humidity;BMP_temperature;BMP_pressure;BME280_temperature;BME280_humidity;BME280_pressure;Samples;Min_cycle;Max_cycle;Signal;HPM_P1;HPM_P2
2023/04/13 00:00:45;;;;;;;6.87;3.55;;;;;;;11.95;73.60;99323.91;1802758;78;21227;-63
2023/04/13 00:03:53;;;;;;;6.17;3.75;;;;;;;11.97;73.61;99305.35;1793151;79;21612;-63
2023/04/13 00:07:02;;;;;;;6.33;3.42;;;;;;;11.96;73.57;99301.75;1801737;78;21241;-63
2023/04/13 00:10:09;;;;;;;6.90;3.55;;;;;;;11.97;73.57;99305.35;1766031;81;21358;-62
2023/04/13 00:13:15;;;;;;;6.22;3.42;;;;;;;11.97;73.62;99306.17;1751907;82;21202;-62
2023/04/13 00:16:25;;;;;;;6.53;3.50;;;;;;;12.01;73.66;99317.57;1735814;81;21258;-62
2023/04/13 00:19:32;;;;;;;5.72;3.55;;;;;;;12.02;73.67;99320.62;1751942;81;21218;-62
2023/04/13 00:22:39;;;;;;;7.33;3.80;;;;;;;12.04;73.62;99319.38;1735819;81;21224;-63
2023/04/13 00:25:46;;;;;;;7.97;3.33;;;;;;;12.04;73.52;99315.77;1752079;81;21175;-62
2023/04/13 00:28:52;;;;;;;5.40;3.15;;;;;;;12.04;73.48;99314.41;1735937;82;21204;-63
2023/04/13 00:32:00;;;;;;;5.95;3.15;;;;;;;12.04;73.51;99304.29;1751844;81;21265;-62
2023/04/13 00:35:07;;;;;;;7.12;4.10;;;;;;;12.02;73.40;99294.56;1735829;82;21383;-61
2023/04/13 00:38:14;;;;;;;12.55;4.28;;;;;;;11.98;73.26;99294.69;1734311;82;21336;-62
2023/04/13 00:41:20;;;;;;;5.90;3.45;;;;;;;11.97;73.38;99301.23;1735738;81;21157;-63
2023/04/13 00:44:27;;;;;;;7.35;4.12;;;;;;;11.97;73.40;99299.86;1752072;81;21174;-62
2023/04/13 00:47:42;;;;;;;10.78;4.10;;;;;;;11.97;73.39;99295.20;1735881;81;21316;-62
2023/04/13 00:50:50;;;;;;;9.40;4.05;;;;;;;11.96;73.43;99295.41;1751944;81;21754;-62
2023/04/13 00:53:56;;;;;;;8.53;3.92;;;;;;;11.96;73.39;99294.90;1735909;82;21192;-62
2023/04/13 00:57:04;;;;;;;10.05;3.90;;;;;;;11.95;73.35;99289.11;1751919;81;21338;-62
2023/04/13 01:00:16;;;;;;;8.08;3.90;;;;;;;11.93;73.33;99293.09;1735885;82;21654;-63
2023/04/13 01:03:22;;;;;;;7.58;4.10;;;;;;;11.94;73.40;99291.52;1751886;81;21261;-62
2023/04/13 01:06:40;;;;;;;7.95;3.52;;;;;;;11.96;73.47;99296.27;1735839;81;21173;-62
2023/04/13 01:10:00;;;;;;;9.13;3.50;;;;;;;11.98;73.46;99296.05;1754310;81;21214;-63
2023/04/13 01:13:25;;;;;;;6.45;3.77;;;;;;;11.98;73.41;99294.69;1735549;81;21277;-63
2023/04/13 01:16:35;;;;;;;11.40;4.62;;;;;;;11.98;73.42;99298.80;1802469;79;21169;-62
2023/04/13 01:19:50;;;;;;;8.45;3.55;;;;;;;11.99;73.46;99294.98;1765851;81;21772;-62
2023/04/13 01:23:02;;;;;;;6.20;3.55;;;;;;;12.00;73.48;99303.55;1802375;79;21248;-61
2023/04/13 01:26:10;;;;;;;5.78;3.33;;;;;;;12.01;73.50;99306.60;1802679;78;21198;-61
2023/04/13 01:29:17;;;;;;;6.75;3.70;;;;;;;12.02;73.49;99306.39;1801971;79;21177;-61
2023/04/13 01:32:22;;;;;;;5.22;3.60;;;;;;;12.02;73.44;99310.50;1802897;79;21193;-62
2023/04/13 01:35:29;;;;;;;12.15;4.20;;;;;;;12.00;73.37;99303.00;1765930;81;21193;-62
2023/04/13 01:38:36;;;;;;;8.00;3.50;;;;;;;11.99;73.37;99306.81;1802982;79;21224;-62
2023/04/13 01:41:44;;;;;;;8.33;3.92;;;;;;;11.96;73.35;99301.75;1765876;81;21326;-64
2023/04/13 01:44:51;;;;;;;7.37;4.10;;;;;;;11.96;73.38;99307.75;1803106;79;21185;-65
2023/04/13 01:48:38;;;;;;;6.03;4.00;;;;;;;11.95;73.40;99317.05;1802439;78;21173;-65
2023/04/13 01:51:53;;;;;;;12.65;4.05;;;;;;;11.92;73.40;99310.62;1730787;81;21571;-64
2023/04/13 01:55:01;;;;;;;9.35;4.00;;;;;;;11.85;73.25;99319.35;1802654;79;21398;-63
2023/04/13 01:58:10;;;;;;;9.60;3.58;;;;;;;11.76;73.21;99321.98;1802935;79;21194;-63
2023/04/13 02:01:16;;;;;;;8.05;4.28;;;;;;;11.72;73.32;99328.93;1802517;78;21232;-63
2023/04/13 02:04:23;;;;;;;5.67;3.83;;;;;;;11.70;73.47;99325.58;1765951;81;21176;-62
2023/04/13 02:07:31;;;;;;;7.80;4.78;;;;;;;11.70;73.52;99326.39;1802988;79;21241;-61
2023/04/13 02:10:42;;;;;;;5.35;3.60;;;;;;;11.69;73.46;99338.42;1803159;78;21186;-61
2023/04/13 02:13:51;;;;;;;9.08;4.37;;;;;;;11.65;73.44;99333.58;1803173;78;21742;-63
2023/04/13 02:16:59;;;;;;;5.42;3.70;;;;;;;11.61;73.44;99333.62;1802668;79;21378;-63
2023/04/13 02:20:11;;;;;;;6.85;3.60;;;;;;;11.59;73.42;99333.01;1802856;79;21189;-63
2023/04/13 02:23:14;;;;;;;6.60;3.70;;;;;;;11.55;73.41;99335.83;1766839;80;21293;-62
2023/04/13 02:26:21;;;;;;;5.95;4.17;;;;;;;11.51;73.40;99331.83;1751843;81;21356;-58
2023/04/13 02:29:28;;;;;;;8.45;4.42;;;;;;;11.48;73.42;99328.96;1735795;82;21318;-58
2023/04/13 02:32:34;;;;;;;9.63;4.37;;;;;;;11.43;73.33;99325.98;1752060;81;21193;-57
2023/04/13 02:35:41;;;;;;;8.08;5.33;;;;;;;11.39;73.35;99324.73;1735818;82;21240;-58
2023/04/13 02:38:48;;;;;;;7.75;5.08;;;;;;;11.34;73.36;99318.17;1751929;81;21202;-59
2023/04/13 02:41:57;;;;;;;9.15;4.67;;;;;;;11.31;73.44;99307.63;1735783;81;21196;-58
2023/04/13 02:45:03;;;;;;;7.62;5.10;;;;;;;11.26;73.43;99311.50;1751758;82;21237;-58
2023/04/13 02:48:13;;;;;;;7.75;4.20;;;;;;;11.20;73.41;99313.19;1735800;82;21358;-58
2023/04/13 02:51:20;;;;;;;5.83;4.37;;;;;;;11.17;73.44;99310.86;1751933;81;21238;-59
2023/04/13 02:54:25;;;;;;;8.23;4.40;;;;;;;11.04;73.30;99321.77;1735774;82;21192;-58
2023/04/13 02:57:33;;;;;;;8.45;4.00;;;;;;;10.98;73.43;99329.44;1751870;81;21360;-58
2023/04/13 03:00:38;;;;;;;8.63;4.10;;;;;;;10.98;73.60;99325.33;1735853;82;21327;-58
2023/04/13 03:03:46;;;;;;;6.58;3.90;;;;;;;11.00;73.69;99329.23;1752046;81;21175;-59
2023/04/13 03:06:53;;;;;;;6.05;3.95;;;;;;;10.98;73.71;99325.84;1735875;81;21248;-58
2023/04/13 03:10:03;;;;;;;7.40;4.40;;;;;;;10.96;73.69;99321.94;1753314;80;21202;-59
2023/04/13 03:13:08;;;;;;;6.33;4.40;;;;;;;10.95;73.75;99324.88;1802112;79;21681;-59
2023/04/13 03:16:17;;;;;;;6.97;4.37;;;;;;;10.94;73.74;99327.31;1765315;81;21268;-57
2023/04/13 03:19:24;;;;;;;6.62;3.98;;;;;;;10.93;73.81;99327.83;1801613;78;21218;-59
2023/04/13 03:22:29;;;;;;;7.12;4.55;;;;;;;10.94;73.88;99335.53;1765333;81;21236;-58
2023/04/13 03:25:30;;;;;;;9.00;4.80;;;;;;;10.95;73.91;99333.09;1802436;79;21212;-58
2023/04/13 03:28:37;;;;;;;7.95;4.28;;;;;;;10.97;73.95;99343.33;1765534;81;21189;-58
2023/04/13 03:31:45;;;;;;;7.92;4.35;;;;;;;10.97;73.93;99348.29;1802807;79;21427;-58
2023/04/13 03:34:52;;;;;;;9.60;4.22;;;;;;;10.96;73.91;99345.21;1765760;81;21244;-58
2023/04/13 03:37:58;;;;;;;8.30;4.58;;;;;;;10.96;73.92;99350.69;1802444;79;21197;-58
2023/04/13 03:41:08;;;;;;;8.93;4.40;;;;;;;10.95;73.93;99344.05;1802609;79;21359;-58
2023/04/13 03:44:15;;;;;;;8.88;4.22;;;;;;;10.95;73.94;99349.52;1803233;79;21237;-58
2023/04/13 03:47:22;;;;;;;6.70;3.83;;;;;;;10.95;74.04;99348.16;1802184;79;21181;-58
2023/04/13 03:50:33;;;;;;;7.50;4.35;;;;;;;10.96;74.09;99358.05;1765741;80;21185;-58
2023/04/13 03:53:44;;;;;;;9.73;4.72;;;;;;;10.95;74.07;99357.74;1802794;79;21170;-57
2023/04/13 03:56:50;;;;;;;10.32;4.90;;;;;;;10.95;74.12;99356.38;1765566;80;21239;-60
2023/04/13 03:59:58;;;;;;;9.10;5.42;;;;;;;10.96;74.14;99353.94;1802168;79;21186;-59
2023/04/13 04:03:16;;;;;;;10.25;4.80;;;;;;;10.95;74.13;99353.63;1765742;81;21188;-57
2023/04/13 04:06:29;;;;;;;9.33;5.30;;;;;;;10.94;74.15;99362.91;1803202;79;21347;-56
2023/04/13 04:09:38;;;;;;;12.63;5.30;;;;;;;10.91;74.09;99356.47;1765987;80;21260;-56
2023/04/13 04:12:50;;;;;;;10.10;4.33;;;;;;;10.89;74.17;99360.78;1800239;79;21551;-57
2023/04/13 04:15:59;;;;;;;9.33;4.65;;;;;;;10.91;74.26;99362.77;1802848;79;21746;-57
2023/04/13 04:19:09;;;;;;;8.20;5.28;;;;;;;10.91;74.30;99368.24;1802482;79;21217;-57
2023/04/13 04:22:16;;;;;;;8.18;5.08;;;;;;;10.92;74.29;99360.89;1802770;79;21295;-57
2023/04/13 04:25:22;;;;;;;7.12;4.80;;;;;;;10.94;74.35;99381.53;1766165;80;21188;-57
2023/04/13 04:28:49;;;;;;;9.15;4.87;;;;;;;10.96;74.39;99373.97;1751624;81;21210;-57
2023/04/13 04:31:43;;;;;;;8.83;4.78;;;;;;;11.01;74.48;99385.16;1735402;81;21216;-57
2023/04/13 04:34:51;;;;;;;8.18;4.40;;;;;;;11.05;74.51;99387.80;1751407;81;21233;-57
2023/04/13 04:37:57;;;;;;;4.97;4.30;;;;;;;11.12;74.53;99390.58;1735407;81;21777;-57
2023/04/13 04:41:04;;;;;;;8.35;4.67;;;;;;;11.15;74.52;99391.02;1743467;82;21225;-57
2023/04/13 04:44:11;;;;;;;10.82;5.70;;;;;;;11.16;74.46;99391.33;1723534;82;21280;-57
2023/04/13 04:47:23;;;;;;;8.88;4.83;;;;;;;11.18;74.46;99388.41;1744679;82;21194;-57
2023/04/13 04:50:32;;;;;;;13.50;7.00;;;;;;;11.19;74.53;99387.35;1744660;82;21221;-57
2023/04/13 04:53:40;;;;;;;23.83;13.00;;;;;;;11.21;74.56;99384.72;1744777;82;21323;-57
2023/04/13 04:56:46;;;;;;;11.45;6.00;;;;;;;11.24;74.61;99384.85;1760738;81;21224;-57
2023/04/13 04:59:53;;;;;;;9.25;5.00;;;;;;;11.27;74.66;99388.55;1735650;82;21229;-58
2023/04/13 05:03:00;;;;;;;10.03;5.42;;;;;;;11.29;74.66;99382.34;1760533;81;21557;-58
2023/04/13 05:06:08;;;;;;;10.05;5.45;;;;;;;11.26;74.50;99379.99;1745456;81;21241;-56
2023/04/13 05:09:17;;;;;;;16.75;8.23;;;;;;;11.27;74.53;99383.07;1718643;83;21184;-56
2023/04/13 05:12:22;;;;;;;10.43;5.62;;;;;;;11.28;74.59;99385.60;1769477;79;21201;-56
2023/04/13 05:15:28;;;;;;;6.58;4.92;;;;;;;11.31;74.60;99380.22;1786950;79;21146;-56
2023/04/13 05:18:36;;;;;;;12.30;5.65;;;;;;;11.29;74.62;99378.24;1800344;79;21173;-57
2023/04/13 05:21:47;;;;;;;13.63;6.27;;;;;;;11.30;74.62;99385.40;1789630;79;21770;-57
2023/04/13 05:24:56;;;;;;;8.23;5.67;;;;;;;11.29;74.63;99379.61;1800655;79;21217;-57
2023/04/13 05:28:02;;;;;;;9.13;5.40;;;;;;;11.27;74.60;99378.45;1802525;78;21750;-57
2023/04/13 05:31:10;;;;;;;10.68;5.53;;;;;;;11.27;74.64;99381.19;1802054;78;21177;-56
2023/04/13 05:34:17;;;;;;;27.25;12.73;;;;;;;11.29;74.63;99372.77;1794913;79;21161;-56
2023/04/13 05:37:28;;;;;;;39.67;14.38;;;;;;;11.31;74.68;99372.86;1802481;79;21805;-56
2023/04/13 05:40:38;;;;;;;30.75;13.58;;;;;;;11.33;74.69;99370.77;1801615;78;21312;-57
2023/04/13 05:43:45;;;;;;;21.52;11.25;;;;;;;11.36;74.73;99375.84;1802207;79;21185;-56
2023/04/13 05:46:44;;;;;;;16.70;8.38;;;;;;;11.37;74.69;99367.10;1787784;78;21185;-58
2023/04/13 05:49:52;;;;;;;14.93;7.60;;;;;;;11.37;74.70;99358.33;1789102;79;21430;-57
2023/04/13 05:53:00;;;;;;;14.13;7.25;;;;;;;11.38;74.70;99362.78;1761985;81;21700;-57
2023/04/13 05:56:15;;;;;;;16.97;7.20;;;;;;;11.39;74.71;99370.45;1793502;78;21746;-56
2023/04/13 05:59:22;;;;;;;19.52;9.10;;;;;;;11.42;74.81;99359.08;1772328;78;21196;-56
2023/04/13 06:02:30;;;;;;;13.93;7.40;;;;;;;11.44;74.81;99361.95;1762889;81;21273;-57
2023/04/13 06:05:37;;;;;;;26.15;11.43;;;;;;;11.49;74.87;99362.70;1792892;79;21232;-57
2023/04/13 06:08:43;;;;;;;24.02;11.10;;;;;;;11.53;74.99;99363.45;1793058;80;21575;-58
2023/04/13 06:11:51;;;;;;;13.03;7.12;;;;;;;11.58;74.89;99373.27;1792801;78;21220;-58
2023/04/13 06:15:11;;;;;;;9.90;6.25;;;;;;;11.57;74.94;99372.11;1766169;79;21228;-57
2023/04/13 06:18:20;;;;;;;9.65;4.90;;;;;;;11.62;75.05;99375.90;1799257;79;21393;-57
2023/04/13 06:21:28;;;;;;;11.75;7.87;;;;;;;11.67;75.04;99380.82;1799687;78;21223;-58
2023/04/13 06:24:38;;;;;;;16.82;9.20;;;;;;;11.71;75.12;99384.83;1783875;79;21196;-62
2023/04/13 06:27:45;;;;;;;15.58;7.17;;;;;;;11.77;75.12;99385.36;1789753;78;21186;-59
2023/04/13 06:30:51;;;;;;;22.52;8.85;;;;;;;11.81;75.14;99388.84;1785250;79;21173;-58
2023/04/13 06:33:58;;;;;;;18.90;8.23;;;;;;;11.86;75.15;99391.81;1771997;79;21288;-57
2023/04/13 06:37:04;;;;;;;16.05;8.30;;;;;;;11.93;75.22;99404.17;1770972;80;21205;-59
2023/04/13 06:40:14;;;;;;;33.42;17.95;;;;;;;11.99;75.20;99403.33;1777851;79;21177;-58
2023/04/13 06:43:26;;;;;;;9.13;6.45;;;;;;;12.05;75.24;99397.00;1772761;80;21742;-57
2023/04/13 06:46:41;;;;;;;8.78;5.05;;;;;;;12.14;75.22;99407.25;1771357;80;21225;-58
2023/04/13 06:49:49;;;;;;;11.03;4.97;;;;;;;12.24;75.20;99401.66;1771541;79;21730;-58
2023/04/13 06:52:56;;;;;;;7.92;4.60;;;;;;;12.32;75.09;99409.69;1771682;79;21221;-59
2023/04/13 06:56:05;;;;;;;19.55;6.03;;;;;;;12.46;75.12;99418.27;1785502;80;21467;-57
2023/04/13 06:59:11;;;;;;;7.53;4.22;;;;;;;12.63;75.18;99409.91;1762924;80;21201;-57
2023/04/13 07:02:16;;;;;;;9.73;5.42;;;;;;;12.85;75.24;99409.98;1793669;78;21174;-57
2023/04/13 07:05:23;;;;;;;6.83;4.45;;;;;;;13.08;75.17;99417.79;1761626;81;21251;-59
2023/04/13 07:08:31;;;;;;;21.20;14.50;;;;;;;13.29;75.02;99408.72;1782690;79;21196;-58
2023/04/13 07:11:36;;;;;;;16.37;10.43;;;;;;;13.51;74.93;99410.63;1772673;80;21216;-58
2023/04/13 07:14:46;;;;;;;8.90;5.25;;;;;;;13.70;74.76;99405.57;1770714;79;21181;-58
2023/04/13 07:17:54;;;;;;;8.55;4.90;;;;;;;13.85;74.56;99404.77;1774420;79;22376;-58
2023/04/13 07:21:02;;;;;;;8.03;4.55;;;;;;;14.00;74.50;99414.09;1768652;79;21198;-57
2023/04/13 07:24:11;;;;;;;11.88;5.20;;;;;;;14.11;74.36;99410.63;1769318;80;21569;-58
2023/04/13 07:27:20;;;;;;;25.88;12.75;;;;;;;14.20;74.19;99410.66;1768469;80;21259;-57
2023/04/13 07:30:25;;;;;;;14.78;5.67;;;;;;;14.24;74.05;99409.17;1779514;79;21761;-58
2023/04/13 07:33:31;;;;;;;13.08;4.85;;;;;;;14.23;73.81;99400.06;1747480;79;21734;-58
2023/04/13 07:36:41;;;;;;;10.20;4.60;;;;;;;14.23;73.79;99404.71;1732699;81;21618;-57
2023/04/13 07:39:48;;;;;;;8.63;4.33;;;;;;;14.23;73.73;99400.06;1768374;80;21205;-57
2023/04/13 07:42:59;;;;;;;9.20;4.67;;;;;;;14.31;73.79;99405.85;1767390;81;21229;-54
2023/04/13 07:46:06;;;;;;;17.27;7.70;;;;;;;14.43;73.80;99397.20;1779919;79;21955;-57
2023/04/13 07:49:14;;;;;;;12.30;8.23;;;;;;;14.47;73.54;99408.06;1778727;79;21228;-58
2023/04/13 07:52:22;;;;;;;7.72;4.20;;;;;;;14.56;73.55;99412.20;1795855;79;21355;-56
2023/04/13 07:55:27;;;;;;;7.47;4.67;;;;;;;14.59;73.27;99409.85;1768981;80;21571;-66
2023/04/13 07:58:34;;;;;;;7.05;3.92;;;;;;;14.62;73.26;99411.30;1768349;80;21181;-66
2023/04/13 08:01:41;;;;;;;10.60;4.40;;;;;;;14.66;73.16;99413.92;1768734;80;21244;-66
2023/04/13 08:04:47;;;;;;;10.90;4.72;;;;;;;14.76;73.29;99416.47;1761162;80;21559;-66
2023/04/13 08:07:55;;;;;;;8.50;4.42;;;;;;;14.86;73.12;99421.47;1771893;79;21729;-65
2023/04/13 08:11:02;;;;;;;7.17;4.40;;;;;;;14.93;73.03;99419.50;1768533;79;21178;-65
2023/04/13 08:14:10;;;;;;;7.65;4.67;;;;;;;15.02;72.98;99413.99;1767028;80;21574;-65
2023/04/13 08:17:16;;;;;;;9.38;4.33;;;;;;;15.11;72.96;99413.99;1766322;80;21236;-65
2023/04/13 08:20:23;;;;;;;7.83;4.50;;;;;;;15.15;72.87;99412.48;1767230;80;21185;-65
2023/04/13 08:23:30;;;;;;;11.28;5.08;;;;;;;15.24;72.82;99429.02;1763050;79;21212;-64
2023/04/13 08:26:36;;;;;;;7.03;4.25;;;;;;;15.35;72.83;99421.92;1791523;79;21201;-67
2023/04/13 08:29:45;;;;;;;10.35;5.20;;;;;;;15.33;72.44;99428.19;1782708;79;21731;-66
2023/04/13 08:32:53;;;;;;;14.70;8.95;;;;;;;15.34;72.40;99415.55;1771306;79;21185;-59
2023/04/13 08:36:02;;;;;;;8.75;5.22;;;;;;;15.41;72.50;99411.38;1783380;79;21347;-60
2023/04/13 08:41:44;;;;;;;8.75;4.58;;;;;;;15.53;72.26;99409.52;1824651;76;28610;-60
2023/04/13 08:44:52;;;;;;;6.85;4.20;;;;;;;15.52;72.18;99411.45;1773415;79;21212;-60
2023/04/13 08:48:00;;;;;;;8.93;4.17;;;;;;;15.53;72.22;99408.98;1770165;80;21239;-60
2023/04/13 08:51:06;;;;;;;11.57;4.78;;;;;;;15.60;72.28;99409.73;1768963;80;22089;-63
2023/04/13 08:54:15;;;;;;;8.35;4.80;;;;;;;15.65;72.06;99409.88;1774470;80;21173;-59
2023/04/13 08:57:21;;;;;;;9.93;4.42;;;;;;;15.62;71.97;99407.59;1769926;80;21287;-59
2023/04/13 09:00:26;;;;;;;10.28;4.25;;;;;;;15.68;71.99;99409.97;1769573;80;21259;-60
2023/04/13 09:03:36;;;;;;;7.70;3.83;;;;;;;15.67;71.90;99406.89;1778416;80;21467;-60
2023/04/13 09:06:49;;;;;;;7.97;3.92;;;;;;;15.73;72.09;99405.42;1778975;80;21557;-60
2023/04/13 09:09:57;;;;;;;6.70;3.85;;;;;;;15.80;72.03;99406.72;1757242;79;21243;-60
2023/04/13 09:13:05;;;;;;;15.20;3.98;;;;;;;15.84;71.96;99413.48;1779126;80;21250;-60
2023/04/13 09:16:13;;;;;;;9.90;3.77;;;;;;;15.83;71.79;99414.53;1774029;80;21494;-60
2023/04/13 09:19:22;;;;;;;7.97;3.62;;;;;;;15.73;71.61;99415.08;1761445;80;21176;-60
2023/04/13 09:22:30;;;;;;;10.63;4.30;;;;;;;15.61;71.49;99415.57;1775508;79;21380;-60
2023/04/13 09:25:38;;;;;;;8.75;4.22;;;;;;;15.54;71.48;99424.45;1775171;79;22212;-60
2023/04/13 09:28:53;;;;;;;7.80;3.70;;;;;;;15.52;71.50;99422.48;1778482;80;21152;-59
2023/04/13 09:32:00;;;;;;;6.00;3.47;;;;;;;15.58;71.70;99424.31;1775731;79;21184;-60
2023/04/13 09:35:12;;;;;;;6.10;3.92;;;;;;;15.66;71.68;99430.05;1772823;79;21209;-60
2023/04/13 09:38:18;;;;;;;7.05;3.83;;;;;;;15.64;71.54;99427.52;1793217;79;21205;-60
2023/04/13 09:41:46;;;;;;;8.33;3.90;;;;;;;15.62;71.41;99426.08;1747720;80;21259;-60
2023/04/13 09:45:03;;;;;;;7.85;4.12;;;;;;;15.57;71.38;99425.37;1755687;79;21244;-60
2023/04/13 09:48:11;;;;;;;6.78;3.65;;;;;;;15.55;71.56;99417.88;1750918;81;21235;-59
2023/04/13 09:51:21;;;;;;;9.80;4.10;;;;;;;15.52;71.35;99430.77;1773462;78;21725;-60
2023/04/13 09:54:29;;;;;;;8.68;3.60;;;;;;;15.41;71.34;99424.64;1779541;80;21177;-58
2023/04/13 09:57:37;;;;;;;8.28;4.35;;;;;;;15.37;71.42;99430.25;1782527;79;21745;-59
2023/04/13 10:00:46;;;;;;;6.60;3.37;;;;;;;15.29;71.33;99429.18;1780675;79;21224;-58
2023/04/13 10:03:55;;;;;;;14.65;4.75;;;;;;;15.19;71.35;99430.80;1764447;81;21757;-59
2023/04/13 10:07:03;;;;;;;9.35;3.92;;;;;;;15.16;71.41;99429.87;1781178;79;21184;-60
2023/04/13 10:10:13;;;;;;;8.85;4.53;;;;;;;15.15;71.50;99423.52;1777174;79;21240;-60
2023/04/13 10:13:27;;;;;;;9.73;3.92;;;;;;;15.16;71.50;99428.50;1757417;79;22018;-60
2023/04/13 10:17:13;;;;;;;7.97;3.70;;;;;;;15.09;71.28;99431.32;1745506;80;21233;-58
2023/04/13 10:20:19;;;;;;;10.58;3.62;;;;;;;15.03;71.22;99429.48;1745698;82;21272;-64
2023/04/13 10:23:28;;;;;;;8.55;3.83;;;;;;;15.10;71.48;99430.23;1746374;82;21767;-59
2023/04/13 10:27:00;;;;;;;10.28;3.65;;;;;;;15.15;71.41;99425.41;1761180;79;21983;-58
2023/04/13 10:30:03;;;;;;;8.55;4.15;;;;;;;15.18;71.39;99427.19;1743899;79;21771;-59
2023/04/13 10:33:12;;;;;;;10.45;3.83;;;;;;;15.22;71.31;99430.33;1774911;79;21781;-60
2023/04/13 10:36:17;;;;;;;8.80;3.45;;;;;;;15.26;71.35;99430.17;1770957;79;21224;-59
2023/04/13 10:39:32;;;;;;;6.42;3.67;;;;;;;15.20;71.02;99429.71;1776675;80;21254;-60
2023/04/13 10:42:47;;;;;;;6.45;3.08;;;;;;;15.17;71.10;99431.02;1742951;82;21231;-59
2023/04/13 10:45:54;;;;;;;6.90;3.50;;;;;;;15.24;71.22;99425.44;1744237;79;21188;-59
2023/04/13 10:49:03;;;;;;;5.85;3.20;;;;;;;15.17;70.96;99428.27;1751841;80;21177;-62
2023/04/13 10:52:10;;;;;;;7.70;3.52;;;;;;;15.14;71.05;99431.48;1761094;79;21192;-59
2023/04/13 10:55:17;;;;;;;8.60;3.40;;;;;;;15.17;71.13;99427.41;1755678;81;21769;-60
2023/04/13 10:58:26;;;;;;;6.65;3.65;;;;;;;15.18;71.18;99429.94;1772780;79;21784;-60
2023/04/13 11:01:32;;;;;;;6.25;3.83;;;;;;;15.16;71.08;99434.83;1769957;79;21617;-59
2023/04/13 11:04:39;;;;;;;13.62;8.25;;;;;;;15.04;70.96;99433.91;1759628;81;21268;-61
2023/04/13 11:07:47;;;;;;;11.63;4.20;;;;;;;15.02;70.97;99436.05;1738173;82;21204;-59
2023/04/13 11:11:03;;;;;;;9.50;3.87;;;;;;;15.11;71.24;99433.84;1764879;81;21647;-59
2023/04/13 11:14:16;;;;;;;6.75;4.05;;;;;;;15.22;71.39;99433.09;1747830;81;21204;-60
2023/04/13 11:17:24;;;;;;;7.28;3.83;;;;;;;15.29;71.26;99436.60;1740734;82;21235;-60
2023/04/13 11:20:40;;;;;;;6.37;4.10;;;;;;;15.26;70.97;99440.67;1734034;82;21195;-60
2023/04/13 11:23:49;;;;;;;5.78;3.87;;;;;;;15.20;70.74;99434.70;1768979;79;21172;-59
2023/04/13 11:26:56;;;;;;;5.95;3.45;;;;;;;15.19;70.89;99428.86;1736843;80;21813;-59
2023/04/13 11:30:11;;;;;;;6.97;3.87;;;;;;;15.23;70.91;99432.01;1748599;80;21200;-60
2023/04/13 11:33:19;;;;;;;8.60;4.22;;;;;;;15.17;70.86;99428.80;1729125;82;21207;-60
2023/04/13 11:36:25;;;;;;;6.75;3.75;;;;;;;15.13;70.93;99427.02;1746180;80;21205;-60
2023/04/13 11:39:32;;;;;;;11.15;4.65;;;;;;;15.05;70.94;99437.52;1749084;82;21251;-60
2023/04/13 11:42:38;;;;;;;7.67;4.47;;;;;;;14.94;70.93;99437.71;1749108;82;21323;-61
2023/04/13 11:45:50;;;;;;;7.58;4.40;;;;;;;14.80;70.84;99438.39;1746839;80;21263;-60
2023/04/13 11:48:53;;;;;;;10.32;3.70;;;;;;;14.73;71.04;99436.77;1754738;80;21784;-59
2023/04/13 11:52:00;;;;;;;8.45;4.03;;;;;;;14.71;71.25;99433.38;1776401;79;21220;-61
2023/04/13 11:55:07;;;;;;;6.62;3.92;;;;;;;14.69;71.20;99441.02;1775417;80;21173;-60
2023/04/13 11:58:17;;;;;;;8.25;4.40;;;;;;;14.62;71.10;99445.20;1774603;79;21633;-60
2023/04/13 12:01:23;;;;;;;7.28;4.40;;;;;;;14.59;71.19;99439.30;1769790;79;21282;-60
2023/04/13 12:04:31;;;;;;;7.97;4.30;;;;;;;14.56;71.27;99435.09;1785935;79;21171;-60
2023/04/13 12:07:38;;;;;;;5.65;3.65;;;;;;;14.51;71.23;99435.44;1757338;79;21248;-59
2023/04/13 12:10:44;;;;;;;7.80;3.55;;;;;;;14.47;71.27;99441.95;1769261;80;21199;-60
2023/04/13 12:13:55;;;;;;;11.38;5.08;;;;;;;14.40;71.19;99444.42;1758007;81;21217;-59
2023/04/13 12:17:04;;;;;;;6.60;3.98;;;;;;;14.30;71.17;99447.67;1763637;80;21192;-63
2023/04/13 12:20:15;;;;;;;7.72;4.20;;;;;;;14.31;71.45;99445.77;1719923;82;21233;-63
2023/04/13 12:23:32;;;;;;;9.48;4.95;;;;;;;14.35;71.54;99440.15;1745464;80;21228;-63
2023/04/13 12:26:43;;;;;;;9.95;5.53;;;;;;;14.35;71.60;99442.91;1728973;82;21236;-64
2023/04/13 12:29:50;;;;;;;9.50;5.10;;;;;;;14.34;71.66;99442.05;1762736;80;21176;-64
2023/04/13 12:33:01;;;;;;;11.78;5.42;;;;;;;14.30;71.64;99448.23;1737970;82;21924;-63
2023/04/13 12:36:10;;;;;;;13.13;5.60;;;;;;;14.25;71.64;99439.78;1738207;80;21213;-62
2023/04/13 12:39:15;;;;;;;11.68;5.05;;;;;;;14.15;71.51;99446.27;1765555;81;21192;-63
2023/04/13 12:42:20;;;;;;;10.43;4.70;;;;;;;14.06;71.60;99445.70;1761535;81;22010;-63
2023/04/13 12:45:27;;;;;;;10.50;4.80;;;;;;;14.04;71.68;99447.83;1708592;82;21626;-62
2023/04/13 12:48:31;;;;;;;9.53;4.83;;;;;;;14.03;71.74;99436.52;1736802;82;21284;-63
2023/04/13 12:51:38;;;;;;;8.30;4.47;;;;;;;14.03;71.83;99442.55;1738556;81;21856;-62
2023/04/13 12:54:46;;;;;;;10.32;4.87;;;;;;;14.00;71.83;99438.30;1744371;79;21519;-64
2023/04/13 12:57:54;;;;;;;8.93;4.80;;;;;;;13.99;71.89;99438.01;1764750;79;21251;-64
2023/04/13 13:01:01;;;;;;;9.25;4.22;;;;;;;14.01;71.90;99440.02;1764488;79;21204;-64
2023/04/13 13:04:09;;;;;;;10.28;5.50;;;;;;;14.00;71.80;99440.23;1770626;80;21198;-64
2023/04/13 13:07:16;;;;;;;9.70;5.37;;;;;;;13.93;71.80;99439.42;1739251;82;21232;-63
2023/04/13 13:10:22;;;;;;;10.68;5.35;;;;;;;13.92;71.91;99441.31;1739945;82;21204;-61
2023/04/13 13:13:29;;;;;;;12.15;6.22;;;;;;;13.86;71.95;99445.51;1760600;79;21706;-66
2023/04/13 13:16:36;;;;;;;14.50;6.62;;;;;;;13.80;71.98;99450.48;1770806;79;21240;-64
2023/04/13 13:19:42;;;;;;;15.25;6.85;;;;;;;13.78;72.09;99447.13;1772392;79;21192;-64
2023/04/13 13:22:52;;;;;;;13.70;6.83;;;;;;;13.72;72.04;99446.09;1770395;79;21628;-63
2023/04/13 13:25:59;;;;;;;11.60;7.58;;;;;;;13.67;71.95;99447.82;1770585;79;21188;-65
2023/04/13 13:29:06;;;;;;;18.20;8.30;;;;;;;13.58;71.99;99443.61;1770664;79;22069;-62
2023/04/13 13:32:12;;;;;;;20.60;7.95;;;;;;;13.60;72.28;99449.73;1747809;80;21231;-63
2023/04/13 13:35:18;;;;;;;11.95;7.92;;;;;;;13.66;72.44;99452.98;1755018;79;21291;-63
2023/04/13 13:38:26;;;;;;;11.53;7.22;;;;;;;13.70;72.52;99461.13;1771445;80;21236;-64
2023/04/13 13:41:34;;;;;;;9.45;6.30;;;;;;;13.72;72.51;99454.34;1770549;79;21216;-63
2023/04/13 13:44:42;;;;;;;10.10;6.78;;;;;;;13.70;72.41;99463.88;1769594;78;21585;-64
2023/04/13 13:47:48;;;;;;;11.78;7.37;;;;;;;13.66;72.25;99455.73;1740766;80;21212;-63
2023/04/13 13:50:57;;;;;;;10.23;6.62;;;;;;;13.56;72.21;99460.32;1742605;82;21240;-63
2023/04/13 13:54:07;;;;;;;11.65;6.75;;;;;;;13.47;72.16;99456.99;1742266;81;21314;-63
2023/04/13 13:57:15;;;;;;;11.95;7.22;;;;;;;13.43;72.29;99455.72;1712862;82;21781;-59
2023/04/13 14:00:22;;;;;;;12.30;7.37;;;;;;;13.41;72.39;99462.51;1712621;82;21216;-58
2023/04/13 14:03:30;;;;;;;14.38;7.90;;;;;;;13.37;72.34;99467.59;1695530;84;21793;-59
2023/04/13 14:06:35;;;;;;;14.93;8.08;;;;;;;13.33;72.49;99462.19;1700275;84;21236;-58
2023/04/13 14:09:45;;;;;;;12.25;8.08;;;;;;;13.37;72.63;99465.36;1700261;84;21209;-59
2023/04/13 14:12:54;;;;;;;12.88;7.83;;;;;;;13.38;72.69;99463.77;1708550;83;21585;-59
2023/04/13 14:16:00;;;;;;;9.73;7.62;;;;;;;13.39;72.66;99466.84;1711170;82;21537;-60
2023/04/13 14:19:07;;;;;;;12.15;7.97;;;;;;;13.35;72.68;99468.33;1708874;83;21200;-59
2023/04/13 14:22:13;;;;;;;11.15;7.60;;;;;;;13.36;72.73;99467.28;1724768;81;21224;-57
2023/04/13 14:25:19;;;;;;;12.78;7.70;;;;;;;13.36;72.75;99474.16;1735406;82;21825;-58
2023/04/13 14:28:26;;;;;;;14.60;9.08;;;;;;;13.36;72.81;99478.28;1735479;82;21192;-58
2023/04/13 14:31:30;;;;;;;15.50;9.85;;;;;;;13.36;72.81;99478.28;1736169;82;21228;-59
2023/04/13 14:34:40;;;;;;;15.68;9.20;;;;;;;13.34;72.77;99480.39;1726341;81;21211;-59
2023/04/13 14:37:46;;;;;;;15.58;9.90;;;;;;;13.31;72.74;99484.95;1708489;84;21276;-59
2023/04/13 14:40:52;;;;;;;13.85;9.23;;;;;;;13.27;72.70;99475.98;1716981;81;21213;-60
2023/04/13 14:43:59;;;;;;;15.58;10.18;;;;;;;13.21;72.72;99484.54;1742570;81;21235;-60